Time;durP1;ratioP1;P1;durP2;ratioP2;P2;SDS_P1;SDS_P2;PMS_P1;PMS_P2;Temp;Humidity;BMP_temperature;BMP_pressure;BME280_temperature;BME280_humidity;BME280_pressure;Samples;Min_cycle;Max_cycle;Signal;HPM_P1;HPM_P2
2022/08/30 00:01:38;;;;;;;5.53;5.03;;;;;;;14.55;91.16;100420.22;10449681;28;20140;-73
2022/08/30 00:06:40;;;;;;;4.50;4.15;;;;;;;14.45;90.16;100422.38;10468959;22;20048;-67
2022/08/30 00:11:41;;;;;;;5.50;4.25;;;;;;;14.29;90.94;100424.75;10417652;28;20437;-68
2022/08/30 00:16:43;;;;;;;5.07;4.68;;;;;;;14.27;92.46;100412.56;10417708;28;20418;-68
2022/08/30 00:21:45;;;;;;;7.45;5.07;;;;;;;14.31;92.09;100411.50;10399597;28;20502;-68
2022/08/30 00:26:46;;;;;;;5.35;4.45;;;;;;;14.51;92.32;100413.34;10399621;28;20053;-68
2022/08/30 00:31:48;;;;;;;8.35;4.97;;;;;;;14.28;93.22;100406.34;10399349;28;20053;-68
2022/08/30 00:36:50;;;;;;;5.45;4.65;;;;;;;14.10;93.20;100419.38;10399043;28;20048;-68
2022/08/30 00:41:51;;;;;;;5.35;4.85;;;;;;;14.01;93.80;100432.97;10416876;28;20124;-68
2022/08/30 00:46:53;;;;;;;5.90;5.00;;;;;;;14.04;93.47;100421.41;10416330;28;20053;-68
2022/08/30 00:51:56;;;;;;;5.93;5.15;;;;;;;14.00;92.94;100420.66;10416247;28;20104;-68
2022/08/30 00:56:58;;;;;;;6.20;4.90;;;;;;;14.22;93.22;100417.16;10416036;28;20491;-68
2022/08/30 01:02:02;;;;;;;4.65;4.25;;;;;;;14.28;92.11;100422.19;10416194;28;20495;-68
2022/08/30 01:07:04;;;;;;;5.15;4.72;;;;;;;13.83;94.20;100415.19;10398193;28;20413;-68
2022/08/30 01:12:06;;;;;;;6.60;5.22;;;;;;;13.60;95.52;100418.72;10416146;28;20048;-68
2022/08/30 01:17:08;;;;;;;6.50;5.38;;;;;;;13.63;95.88;100423.88;10415964;28;20065;-68
2022/08/30 01:22:38;;;;;;;7.05;5.85;;;;;;;13.70;95.97;100414.78;10415120;28;20450;-68
2022/08/30 01:27:46;;;;;;;5.85;4.97;;;;;;;13.58;94.71;100415.25;10415204;28;20103;-68
2022/08/30 01:32:49;;;;;;;6.45;5.85;;;;;;;13.58;94.70;100418.75;10415451;28;20487;-68
2022/08/30 01:37:51;;;;;;;6.43;5.85;;;;;;;13.58;95.23;100416.13;10415087;28;20080;-68
2022/08/30 01:42:52;;;;;;;6.07;5.28;;;;;;;13.60;95.77;100416.06;10415247;28;20392;-68
2022/08/30 01:47:54;;;;;;;6.43;5.43;;;;;;;13.55;96.33;100426.81;10397318;28;20132;-68
2022/08/30 01:53:00;;;;;;;5.85;5.25;;;;;;;13.47;95.51;100425.38;10414882;28;20045;-68
2022/08/30 01:58:02;;;;;;;6.13;5.53;;;;;;;13.68;95.00;100421.94;10413886;28;20037;-67
2022/08/30 02:03:04;;;;;;;7.03;5.07;;;;;;;13.52;96.01;100419.00;10414542;28;20075;-69
2022/08/30 02:08:06;;;;;;;6.10;5.47;;;;;;;13.62;95.58;100430.94;10396428;28;20087;-69
2022/08/30 02:13:08;;;;;;;6.57;5.88;;;;;;;13.41;97.26;100426.44;10414181;28;20038;-69
2022/08/30 02:18:09;;;;;;;6.43;5.85;;;;;;;13.16;98.83;100433.53;10413999;28;20054;-69
2022/08/30 02:23:11;;;;;;;5.50;5.00;;;;;;;13.16;98.34;100420.34;10416146;28;20038;-69
2022/08/30 02:28:14;;;;;;;6.88;6.13;;;;;;;13.44;97.52;100420.22;10421458;28;20069;-70
2022/08/30 02:33:19;;;;;;;6.38;5.80;;;;;;;13.33;97.73;100420.63;10404285;28;20060;-70
2022/08/30 02:38:22;;;;;;;6.47;5.55;;;;;;;13.01;99.44;100424.38;10403165;28;20049;-69
2022/08/30 02:43:24;;;;;;;6.07;5.57;;;;;;;12.99;100.00;100420.94;10420867;28;20494;-69
2022/08/30 02:48:25;;;;;;;6.65;6.05;;;;;;;13.00;100.00;100420.88;10420712;28;20045;-69
2022/08/30 02:53:27;;;;;;;6.32;5.82;;;;;;;13.38;98.18;100418.66;10402904;28;20038;-69
2022/08/30 02:58:29;;;;;;;6.53;5.82;;;;;;;13.08;100.00;100424.09;10420638;28;20045;-69
2022/08/30 03:03:31;;;;;;;6.20;5.60;;;;;;;12.92;98.61;100422.06;10420122;28;20076;-69
2022/08/30 03:08:33;;;;;;;7.25;5.85;;;;;;;12.92;100.00;100433.47;10403332;28;20353;-69
2022/08/30 03:13:35;;;;;;;6.15;5.57;;;;;;;12.95;99.43;100427.25;10419542;28;20045;-69
2022/08/30 03:18:36;;;;;;;7.05;6.45;;;;;;;13.10;99.59;100430.22;10403124;28;20049;-69
2022/08/30 03:23:39;;;;;;;5.72;5.15;;;;;;;13.08;99.93;100425.88;10419677;28;20051;-68
2022/08/30 03:28:42;;;;;;;6.57;5.95;;;;;;;12.93;100.00;100426.44;10420325;28;20479;-69
2022/08/30 03:33:43;;;;;;;5.55;5.07;;;;;;;13.03;100.00;100418.13;10418690;28;20503;-69
2022/08/30 03:38:45;;;;;;;5.72;5.18;;;;;;;13.09;99.13;100417.03;10419864;28;20513;-69
2022/08/30 03:43:47;;;;;;;5.15;4.75;;;;;;;12.98;99.81;100420.06;10420581;28;20041;-69
2022/08/30 03:48:48;;;;;;;6.15;5.07;;;;;;;12.77;99.46;100421.69;10402503;28;20057;-69
2022/08/30 03:53:50;;;;;;;5.20;4.80;;;;;;;12.73;99.60;100414.78;10420124;28;20034;-69
2022/08/30 03:58:52;;;;;;;6.10;4.78;;;;;;;12.95;99.24;100409.63;10419690;28;20049;-69
2022/08/30 04:03:55;;;;;;;6.35;5.45;;;;;;;12.67;100.00;100422.06;10419268;28;20101;-69
2022/08/30 04:08:57;;;;;;;7.10;6.47;;;;;;;12.90;98.96;100416.84;10418506;28;20124;-69
2022/08/30 04:13:58;;;;;;;7.45;5.90;;;;;;;12.67;100.00;100430.84;10418750;28;20120;-69
2022/08/30 04:19:00;;;;;;;8.05;6.50;;;;;;;12.57;100.00;100425.03;10419224;28;20049;-69
2022/08/30 04:24:02;;;;;;;6.40;5.85;;;;;;;12.60;99.56;100427.53;10419300;28;20043;-69
2022/08/30 04:29:04;;;;;;;7.75;7.03;;;;;;;12.56;100.00;100433.81;10401259;28;20103;-69
2022/08/30 04:34:08;;;;;;;10.15;7.93;;;;;;;12.60;99.73;100435.44;10418714;28;20041;-69
2022/08/30 04:39:10;;;;;;;8.85;7.90;;;;;;;12.70;99.74;100438.63;10418469;28;20495;-69
2022/08/30 04:44:12;;;;;;;9.15;7.68;;;;;;;12.83;99.39;100450.47;10418701;28;20037;-70
2022/08/30 04:49:20;;;;;;;11.32;7.22;;;;;;;12.85;98.62;100453.09;10400678;28;20041;-69
2022/08/30 04:54:22;;;;;;;7.80;6.95;;;;;;;12.88;98.76;100448.56;10416473;28;20506;-69
2022/08/30 04:59:23;;;;;;;11.48;8.13;;;;;;;12.81;99.66;100454.09;10416873;28;20053;-69
2022/08/30 05:04:25;;;;;;;8.57;7.70;;;;;;;12.88;99.81;100459.13;10416138;28;20038;-70
2022/08/30 05:09:27;;;;;;;8.52;7.55;;;;;;;13.06;99.82;100456.75;10399588;28;20048;-69
2022/08/30 05:14:28;;;;;;;9.07;7.57;;;;;;;13.03;99.44;100473.56;10416738;28;20033;-70
2022/08/30 05:19:32;;;;;;;7.38;6.68;;;;;;;13.09;98.43;100468.06;10415881;28;20041;-71
2022/08/30 05:24:35;;;;;;;8.23;7.40;;;;;;;13.31;98.13;100475.25;10415793;28;20483;-70
2022/08/30 05:29:36;;;;;;;7.30;6.65;;;;;;;13.31;97.94;100475.25;10415913;28;20049;-69
2022/08/30 05:34:38;;;;;;;6.88;6.28;;;;;;;13.42;98.15;100481.00;10415672;28;20046;-70
2022/08/30 05:39:40;;;;;;;6.55;5.95;;;;;;;13.53;97.08;100488.53;10398654;28;20049;-70
2022/08/30 05:44:53;;;;;;;7.45;6.75;;;;;;;13.65;96.62;100480.16;10414812;28;20033;-70
2022/08/30 05:49:55;;;;;;;9.82;7.15;;;;;;;14.00;94.44;100480.59;10417563;28;20046;-69
2022/08/30 05:55:02;;;;;;;7.47;6.75;;;;;;;14.01;94.66;100477.88;10399032;28;20065;-69
2022/08/30 06:00:12;;;;;;;7.25;6.55;;;;;;;14.30;94.26;100484.69;10422154;28;20046;-69
2022/08/30 06:05:14;;;;;;;6.70;6.10;;;;;;;15.28;89.96;100488.53;10423546;28;20041;-68
2022/08/30 06:10:16;;;;;;;6.75;4.82;;;;;;;16.08;82.84;100487.59;10482676;22;20041;-79
2022/08/30 06:15:18;;;;;;;6.07;5.00;;;;;;;16.51;79.60;100483.75;10483474;28;20071;-79
2022/08/30 06:20:20;;;;;;;4.60;4.20;;;;;;;16.94;76.25;100483.41;10465407;28;20044;-79
2022/08/30 06:25:21;;;;;;;6.38;5.78;;;;;;;17.01;74.90;100485.69;10464974;28;20502;-79
2022/08/30 06:30:23;;;;;;;7.40;5.45;;;;;;;17.01;76.12;100485.69;10479416;28;20102;-78
2022/08/30 06:35:26;;;;;;;6.63;6.13;;;;;;;17.12;75.47;100482.44;10461959;28;20056;-80
2022/08/30 06:40:28;;;;;;;7.35;6.65;;;;;;;17.20;74.55;100487.38;10490754;28;20048;-79
2022/08/30 06:45:29;;;;;;;6.57;5.97;;;;;;;17.26;75.94;100481.72;10494426;28;20036;-79
2022/08/30 06:50:31;;;;;;;6.13;5.53;;;;;;;17.43;75.00;100480.84;10492677;28;20052;-79
2022/08/30 06:55:33;;;;;;;6.43;5.82;;;;;;;17.62;73.18;100470.97;10477137;28;20108;-79
2022/08/30 07:00:35;;;;;;;11.10;5.32;;;;;;;17.63;72.74;100478.00;10491396;28;20104;-78
2022/08/30 07:05:37;;;;;;;8.98;5.38;;;;;;;17.61;73.84;100477.22;10490174;28;20072;-79
2022/08/30 07:10:40;;;;;;;6.47;5.95;;;;;;;17.50;74.93;100477.78;10482158;28;20051;-79
2022/08/30 07:15:43;;;;;;;8.18;5.88;;;;;;;17.57;74.18;100471.19;10481392;28;20474;-78
2022/08/30 07:20:45;;;;;;;6.07;5.47;;;;;;;17.69;73.33;100476.81;10462933;28;20053;-81
2022/08/30 07:25:47;;;;;;;5.65;5.03;;;;;;;17.60;74.44;100494.97;10464649;28;20417;-80
2022/08/30 07:30:48;;;;;;;5.95;5.35;;;;;;;18.01;72.26;100488.34;10480486;28;20037;-80
2022/08/30 07:35:50;;;;;;;5.72;5.20;;;;;;;17.94;71.67;100501.16;10455747;28;20055;-80
2022/08/30 07:40:52;;;;;;;6.32;5.82;;;;;;;18.10;73.00;100515.31;10475562;28;20052;-80
2022/08/30 07:45:56;;;;;;;5.22;4.68;;;;;;;18.18;73.25;100506.91;10475751;28;20048;-80
2022/08/30 07:50:57;;;;;;;5.22;4.80;;;;;;;18.50;71.67;100497.09;10474565;28;20045;-79
2022/08/30 07:56:06;;;;;;;5.80;5.30;;;;;;;18.58;72.64;100499.31;10471242;28;20040;-79
2022/08/30 08:01:09;;;;;;;5.53;4.90;;;;;;;19.03;70.20;100501.13;10470400;28;20064;-79
2022/08/30 08:06:13;;;;;;;4.32;3.92;;;;;;;19.01;69.63;100505.69;10469404;28;20041;-78
2022/08/30 08:11:19;;;;;;;3.67;3.38;;;;;;;19.35;68.95;100501.03;10472974;28;20045;-78
2022/08/30 08:16:24;;;;;;;4.20;3.80;;;;;;;19.70;66.77;100482.00;10476285;28;20466;-79
2022/08/30 08:21:26;;;;;;;6.55;3.90;;;;;;;19.97;65.79;100493.63;10446811;28;20140;-79
2022/08/30 08:26:28;;;;;;;3.40;3.10;;;;;;;20.15;63.84;100496.94;10453784;28;20048;-79
2022/08/30 08:31:30;;;;;;;4.80;3.83;;;;;;;20.49;61.88;100500.09;10455363;28;20041;-78
2022/08/30 08:36:35;;;;;;;4.22;3.35;;;;;;;20.51;60.55;100504.41;10470617;28;20059;-78
2022/08/30 08:42:11;;;;;;;3.83;3.45;;;;;;;20.84;59.90;100493.28;10449743;28;20057;-78
2022/08/30 08:47:24;;;;;;;3.40;3.10;;;;;;;20.91;60.29;100494.59;10472352;28;20525;-79
2022/08/30 08:58:04;;;;;;;4.50;3.38;;;;;;;21.05;58.86;100495.47;10484860;28;20105;-78
2022/08/30 09:03:12;;;;;;;3.95;3.05;;;;;;;21.26;58.85;100498.50;10485370;28;20044;-78
2022/08/30 09:08:17;;;;;;;3.85;2.63;;;;;;;21.85;58.20;100486.28;10504368;28;20029;-78
2022/08/30 09:13:19;;;;;;;3.78;3.10;;;;;;;21.88;56.55;100493.25;10471966;28;20051;-78
2022/08/30 09:18:43;;;;;;;3.47;3.03;;;;;;;22.48;55.08;100488.91;10489356;28;20040;-78
2022/08/30 09:23:49;;;;;;;5.20;2.88;;;;;;;22.69;54.91;100483.78;10473585;28;20029;-79
2022/08/30 09:28:50;;;;;;;2.33;1.88;;;;;;;23.14;53.38;100485.66;10495463;28;20124;-79
2022/08/30 09:34:07;;;;;;;2.30;2.00;;;;;;;23.56;51.85;100477.94;10493805;28;20087;-77
2022/08/30 09:39:29;;;;;;;3.25;2.28;;;;;;;24.07;50.04;100474.75;10485634;28;20039;-78
2022/08/30 09:44:36;;;;;;;3.60;2.47;;;;;;;24.63;48.93;100481.84;10473895;28;20049;-78
2022/08/30 09:49:44;;;;;;;2.53;2.33;;;;;;;24.66;48.98;100473.56;10442690;28;20049;-77
2022/08/30 09:54:52;;;;;;;3.90;2.70;;;;;;;24.92;46.41;100469.50;10452691;28;20045;-78
2022/08/30 10:00:03;;;;;;;3.33;2.85;;;;;;;25.64;45.83;100459.75;10436446;28;20064;-78
2022/08/30 10:05:16;;;;;;;3.47;2.08;;;;;;;25.32;46.49;100457.16;10471230;28;20049;-78
2022/08/30 10:10:41;;;;;;;5.18;3.15;;;;;;;24.92;48.19;100465.94;10447732;28;20045;-77
2022/08/30 10:16:12;;;;;;;4.10;3.15;;;;;;;23.56;51.58;100463.69;10463009;28;20102;-78
2022/08/30 10:21:19;;;;;;;3.75;2.65;;;;;;;23.80;50.94;100460.88;10484280;28;20055;-78
2022/08/30 10:26:27;;;;;;;4.07;2.60;;;;;;;24.37;50.23;100454.47;10490180;28;20119;-78
2022/08/30 10:31:54;;;;;;;2.72;2.28;;;;;;;25.22;46.13;100458.97;10489270;28;20056;-78
2022/08/30 10:37:02;;;;;;;2.15;1.95;;;;;;;25.35;45.13;100448.84;10489065;28;20041;-78
2022/08/30 10:42:15;;;;;;;3.65;1.98;;;;;;;24.98;45.68;100448.47;10456288;28;20111;-78
2022/08/30 10:47:28;;;;;;;2.28;1.88;;;;;;;25.12;44.15;100456.22;10468186;28;20048;-80
2022/08/30 10:52:53;;;;;;;2.25;1.73;;;;;;;24.81;43.96;100441.81;10483944;28;20483;-78
2022/08/30 10:58:05;;;;;;;1.83;1.57;;;;;;;24.88;44.17;100449.25;10463330;28;20052;-79
2022/08/30 11:03:28;;;;;;;2.47;1.40;;;;;;;24.96;43.85;100443.19;10464619;28;20068;-79
2022/08/30 11:08:44;;;;;;;1.92;1.48;;;;;;;25.15;42.06;100437.97;10476276;28;20061;-78
2022/08/30 11:13:48;;;;;;;2.10;1.20;;;;;;;24.47;43.21;100436.59;10497198;28;20037;-77
2022/08/30 11:18:55;;;;;;;2.13;1.60;;;;;;;24.16;43.69;100436.41;10456491;28;20087;-77
2022/08/30 11:24:01;;;;;;;1.33;1.20;;;;;;;25.05;41.90;100422.72;10465250;28;20391;-77
2022/08/30 11:29:06;;;;;;;1.95;1.25;;;;;;;25.87;40.94;100426.28;10464246;28;20047;-77
2022/08/30 11:34:09;;;;;;;1.98;1.65;;;;;;;25.87;41.06;100430.81;10445568;28;20048;-77
2022/08/30 11:39:32;;;;;;;1.35;1.20;;;;;;;25.71;41.47;100417.81;10463061;28;20391;-77
2022/08/30 11:44:34;;;;;;;3.88;1.50;;;;;;;25.64;39.77;100422.91;10463303;28;20052;-77
2022/08/30 11:49:48;;;;;;;3.42;1.35;;;;;;;25.96;40.48;100416.53;10465398;28;20055;-77
2022/08/30 11:55:09;;;;;;;2.00;1.40;;;;;;;26.39;39.73;100416.16;10452147;28;20063;-78
2022/08/30 12:00:27;;;;;;;3.47;1.15;;;;;;;26.56;40.32;100414.63;10475067;28;20552;-78
2022/08/30 12:05:41;;;;;;;2.67;1.50;;;;;;;25.98;40.90;100406.44;10456343;28;20040;-78
2022/08/30 12:10:52;;;;;;;2.10;1.08;;;;;;;26.06;39.62;100403.06;10500785;22;20052;-82
2022/08/30 12:16:02;;;;;;;5.53;1.50;;;;;;;25.87;39.59;100398.50;10454319;28;20040;-83
2022/08/30 12:21:11;;;;;;;2.10;1.48;;;;;;;25.36;40.95;100394.88;10484488;28;20124;-84
2022/08/30 12:26:16;;;;;;;1.50;1.40;;;;;;;24.73;41.23;100406.66;10454324;28;20055;-83
2022/08/30 12:31:24;;;;;;;3.25;1.65;;;;;;;24.28;43.21;100396.94;10442848;28;20052;-83
2022/08/30 12:36:58;;;;;;;2.60;1.63;;;;;;;24.42;45.45;100393.97;10440200;28;20041;-84
2022/08/30 12:42:34;;;;;;;2.40;1.52;;;;;;;24.20;46.65;100388.66;10448474;28;20044;-84
2022/08/30 12:47:46;;;;;;;2.25;1.70;;;;;;;24.35;46.25;100381.19;10280507;28;20043;-79
2022/08/30 12:53:05;;;;;;;2.70;1.80;;;;;;;24.46;45.88;100378.47;10299549;28;20186;-79
2022/08/30 12:58:14;;;;;;;6.68;2.20;;;;;;;25.17;45.45;100379.50;10286629;28;20065;-80
2022/08/30 13:03:38;;;;;;;2.65;2.20;;;;;;;24.30;47.23;100381.53;10305971;28;20062;-79
2022/08/30 13:08:44;;;;;;;2.17;1.52;;;;;;;23.77;49.39;100369.84;10284661;28;20173;-80
2022/08/30 13:13:57;;;;;;;3.92;2.13;;;;;;;23.45;50.06;100372.44;10300397;28;20051;-80
2022/08/30 13:19:40;;;;;;;3.03;2.08;;;;;;;23.26;51.59;100371.22;10315165;28;20066;-81
2022/08/30 13:24:41;;;;;;;3.22;2.33;;;;;;;23.05;51.93;100370.22;10458921;28;20141;-80
2022/08/30 13:29:43;;;;;;;4.22;2.10;;;;;;;23.03;51.76;100374.88;10469136;28;20582;-80
2022/08/30 13:34:45;;;;;;;2.60;2.40;;;;;;;22.88;52.11;100383.09;10470820;28;20044;-79
2022/08/30 13:39:50;;;;;;;2.95;2.13;;;;;;;23.09;51.68;100367.19;10488329;28;20049;-80
2022/08/30 13:44:52;;;;;;;2.30;1.85;;;;;;;23.61;50.36;100367.56;10467373;28;20433;-81
2022/08/30 13:49:54;;;;;;;2.25;1.75;;;;;;;23.51;50.20;100363.91;10467024;28;20060;-81
2022/08/30 13:54:57;;;;;;;3.33;2.05;;;;;;;23.57;49.10;100369.63;10461590;28;20041;-80
2022/08/30 13:59:58;;;;;;;2.53;1.60;;;;;;;23.34;49.46;100363.44;10480090;28;20045;-81
2022/08/30 14:05:00;;;;;;;1.70;1.60;;;;;;;23.17;49.75;100364.75;10471960;28;20049;-81
2022/08/30 14:10:05;;;;;;;3.47;1.90;;;;;;;23.10;48.55;100355.47;10466392;28;20083;-81
2022/08/30 14:15:26;;;;;;;2.20;1.85;;;;;;;22.97;48.02;100357.41;10469729;28;20037;-80
2022/08/30 14:20:28;;;;;;;1.98;1.88;;;;;;;22.86;48.45;100352.88;10457947;28;20049;-81
2022/08/30 14:25:30;;;;;;;2.67;1.60;;;;;;;22.91;48.42;100355.22;10464910;28;20045;-80
2022/08/30 14:30:31;;;;;;;1.83;1.70;;;;;;;23.02;48.27;100355.25;10482993;28;20045;-81
2022/08/30 14:35:34;;;;;;;3.25;1.42;;;;;;;23.11;47.33;100356.38;10470552;28;20040;-80
2022/08/30 14:40:36;;;;;;;4.43;1.70;;;;;;;23.20;47.54;100346.69;10479580;28;20049;-81
2022/08/30 14:45:38;;;;;;;2.47;1.50;;;;;;;23.24;47.18;100351.72;10482900;28;20069;-81
2022/08/30 14:50:40;;;;;;;2.47;1.50;;;;;;;23.34;46.70;100350.00;10463901;28;20033;-80
2022/08/30 14:55:42;;;;;;;1.70;1.33;;;;;;;23.52;46.52;100350.34;10466425;28;20037;-81
2022/08/30 15:00:51;;;;;;;2.70;1.67;;;;;;;23.28;47.64;100341.59;10461161;28;20076;-79
2022/08/30 15:05:53;;;;;;;2.17;1.55;;;;;;;23.39;46.42;100339.75;10488271;28;20049;-80
2022/08/30 15:10:54;;;;;;;2.17;1.23;;;;;;;23.29;46.01;100338.81;10484307;28;20049;-79
2022/08/30 15:15:56;;;;;;;1.70;1.27;;;;;;;23.24;45.85;100332.06;10501083;28;20049;-79
2022/08/30 15:20:58;;;;;;;1.52;1.25;;;;;;;23.00;47.23;100334.88;10485078;28;20525;-81
2022/08/30 15:26:00;;;;;;;1.55;1.45;;;;;;;22.89;47.48;100335.72;10481074;28;20521;-81
2022/08/30 15:31:01;;;;;;;3.00;1.40;;;;;;;22.96;48.05;100326.22;10466917;28;20508;-81
2022/08/30 15:36:10;;;;;;;1.65;1.40;;;;;;;22.74;48.50;100336.91;10469788;28;20091;-80
2022/08/30 15:41:12;;;;;;;2.17;1.40;;;;;;;22.86;48.30;100325.22;10484395;28;20059;-80
2022/08/30 15:46:30;;;;;;;3.63;1.20;;;;;;;22.71;49.82;100331.75;10486293;28;20045;-80
2022/08/30 15:51:34;;;;;;;2.40;1.17;;;;;;;22.43;51.36;100325.88;10470739;28;20139;-80
2022/08/30 15:56:43;;;;;;;1.40;1.30;;;;;;;22.27;51.66;100328.00;10466078;28;20060;-81
2022/08/30 16:01:45;;;;;;;1.58;1.40;;;;;;;22.18;51.80;100329.56;10483399;28;20065;-81
2022/08/30 16:06:48;;;;;;;2.15;1.50;;;;;;;22.02;52.30;100340.53;10478230;28;20505;-80
2022/08/30 16:11:50;;;;;;;2.35;1.35;;;;;;;22.01;52.39;100336.16;10490457;28;20120;-80
2022/08/30 16:16:51;;;;;;;2.28;1.65;;;;;;;22.13;52.46;100332.59;10445446;28;20136;-81
2022/08/30 16:21:53;;;;;;;2.80;1.45;;;;;;;22.14;52.05;100334.28;10456281;28;20040;-81
2022/08/30 16:26:55;;;;;;;1.88;1.30;;;;;;;22.09;52.68;100319.50;10453947;28;20045;-80
2022/08/30 16:31:57;;;;;;;1.48;1.30;;;;;;;21.90;53.15;100317.34;10450266;28;20087;-80
2022/08/30 16:36:59;;;;;;;3.00;1.50;;;;;;;21.72;53.80;100321.38;10464957;28;20041;-79
2022/08/30 16:42:02;;;;;;;4.20;1.73;;;;;;;21.59;54.29;100318.75;10463897;28;20047;-80
2022/08/30 16:47:04;;;;;;;1.42;1.30;;;;;;;21.59;53.79;100324.09;10447160;28;20083;-80
2022/08/30 16:52:13;;;;;;;2.22;1.58;;;;;;;21.82;53.18;100311.69;10465779;28;20040;-80
2022/08/30 16:57:15;;;;;;;1.95;1.30;;;;;;;21.54;54.25;100307.53;10464562;28;20041;-80
2022/08/30 17:02:16;;;;;;;2.28;1.67;;;;;;;21.59;54.24;100305.38;10448272;28;20068;-81
2022/08/30 17:07:18;;;;;;;2.03;1.30;;;;;;;21.44;54.69;100314.53;10450063;28;20068;-82
2022/08/30 17:12:23;;;;;;;3.28;1.73;;;;;;;21.38;54.85;100316.69;10452418;28;20045;-83
2022/08/30 17:17:26;;;;;;;1.67;1.58;;;;;;;21.34;54.89;100323.22;10471258;28;20033;-83
2022/08/30 17:22:30;;;;;;;4.57;1.90;;;;;;;21.22;55.06;100323.22;10447607;28;20553;-81
2022/08/30 17:27:32;;;;;;;1.65;1.55;;;;;;;21.23;54.38;100324.91;10449751;28;20037;-80
2022/08/30 17:32:34;;;;;;;2.00;1.80;;;;;;;21.20;54.86;100327.78;10447014;28;20136;-80
2022/08/30 17:37:35;;;;;;;1.55;1.45;;;;;;;20.96;55.71;100336.59;10455758;28;20049;-82
2022/08/30 17:42:39;;;;;;;2.38;1.70;;;;;;;20.99;55.81;100341.75;10466711;28;20088;-81
2022/08/30 17:47:44;;;;;;;1.58;1.48;;;;;;;20.73;56.96;100340.88;10490201;28;20036;-85
2022/08/30 17:52:51;;;;;;;1.60;1.50;;;;;;;20.80;56.23;100341.28;10479151;28;20041;-86
2022/08/30 17:58:13;;;;;;;1.85;1.75;;;;;;;20.78;56.09;100346.75;10306480;28;20066;-84
2022/08/30 18:09:56;;;;;;;2.00;1.80;;;;;;;20.10;60.92;100358.44;10372369;22;20048;-70
2022/08/30 18:14:59;;;;;;;3.28;2.28;;;;;;;20.04;63.24;100364.19;10424203;28;20080;-71
2022/08/30 18:20:01;;;;;;;2.90;2.05;;;;;;;19.82;63.88;100358.53;10423863;28;20060;-71
2022/08/30 18:25:04;;;;;;;2.00;1.70;;;;;;;19.57;64.64;100362.75;10405919;28;20499;-71
2022/08/30 18:30:08;;;;;;;2.30;1.90;;;;;;;19.41;65.29;100365.53;10407047;28;20041;-72
2022/08/30 18:35:12;;;;;;;4.35;1.90;;;;;;;19.28;66.40;100366.41;10406865;28;20099;-70
2022/08/30 18:40:15;;;;;;;2.95;2.15;;;;;;;19.31;66.92;100372.41;10406743;28;20052;-71
2022/08/30 18:45:19;;;;;;;2.13;1.92;;;;;;;19.20;67.52;100382.88;10423628;28;20092;-70
2022/08/30 18:50:21;;;;;;;2.13;1.88;;;;;;;18.97;67.80;100391.44;10422181;28;20049;-71
2022/08/30 18:55:25;;;;;;;2.47;2.08;;;;;;;18.79;68.55;100393.41;10404082;28;20045;-70
2022/08/30 19:00:28;;;;;;;2.10;1.70;;;;;;;18.73;69.76;100394.63;10422287;28;20049;-71
2022/08/30 19:05:30;;;;;;;2.38;2.10;;;;;;;18.58;70.50;100401.66;10403750;28;20045;-71
2022/08/30 19:10:34;;;;;;;2.30;2.08;;;;;;;18.64;70.11;100405.81;10404286;28;20049;-71
2022/08/30 19:15:36;;;;;;;2.97;2.22;;;;;;;18.40;71.07;100395.63;10421371;28;20403;-71
2022/08/30 19:20:38;;;;;;;2.70;2.45;;;;;;;18.45;70.48;100392.69;10420897;28;20548;-71
2022/08/30 19:25:42;;;;;;;3.53;2.33;;;;;;;18.50;70.44;100403.06;10420274;28;20042;-71
2022/08/30 19:30:44;;;;;;;6.38;2.40;;;;;;;18.51;68.88;100402.16;10421050;28;20056;-70
2022/08/30 19:35:46;;;;;;;3.95;2.47;;;;;;;18.26;69.70;100400.91;10386299;28;20053;-71
2022/08/30 19:40:57;;;;;;;3.53;2.92;;;;;;;18.33;70.13;100404.94;10402524;28;20067;-70
2022/08/30 19:45:59;;;;;;;3.45;3.15;;;;;;;18.27;70.37;100397.28;10421213;28;20368;-70
2022/08/30 19:51:08;;;;;;;3.70;3.40;;;;;;;18.23;71.20;100402.88;10402556;28;20072;-70
2022/08/30 19:56:11;;;;;;;3.42;3.15;;;;;;;18.10;72.43;100400.91;10421136;28;20044;-70
2022/08/30 20:01:13;;;;;;;3.67;3.38;;;;;;;18.18;72.69;100404.94;10401900;28;20056;-70
2022/08/30 20:06:34;;;;;;;3.75;3.45;;;;;;;17.94;74.49;100404.56;10419751;28;20103;-70
2022/08/30 20:11:37;;;;;;;4.63;4.22;;;;;;;17.90;74.43;100403.84;10401572;28;20099;-71
2022/08/30 20:16:41;;;;;;;4.70;4.22;;;;;;;17.73;76.09;100396.78;10400543;28;20052;-70
2022/08/30 20:21:46;;;;;;;3.80;3.50;;;;;;;17.82;75.91;100401.63;10404593;28;20049;-71
2022/08/30 20:26:50;;;;;;;4.50;4.20;;;;;;;17.58;77.58;100397.66;10402416;28;20037;-71
2022/08/30 20:31:52;;;;;;;4.50;4.10;;;;;;;17.36;78.66;100397.97;10417809;28;20049;-71
2022/08/30 20:36:54;;;;;;;5.47;4.97;;;;;;;17.83;76.48;100413.97;10417997;28;20121;-71
2022/08/30 20:41:57;;;;;;;4.07;3.78;;;;;;;17.57;76.97;100404.72;10417920;28;20487;-70
2022/08/30 20:46:58;;;;;;;3.90;3.53;;;;;;;17.70;75.19;100407.59;10417696;28;20041;-70
2022/08/30 20:52:00;;;;;;;3.92;3.65;;;;;;;17.48;76.09;100418.53;10418313;28;20056;-71
2022/08/30 20:57:05;;;;;;;4.63;4.32;;;;;;;17.39;77.17;100419.03;10399610;28;20056;-71
2022/08/30 21:02:07;;;;;;;3.75;3.45;;;;;;;17.39;77.31;100427.84;10399542;28;20076;-70
2022/08/30 21:07:11;;;;;;;3.95;3.47;;;;;;;17.65;75.18;100430.91;10416734;28;20088;-70
2022/08/30 21:12:13;;;;;;;4.25;3.83;;;;;;;17.57;76.24;100433.13;10417402;28;20483;-71
2022/08/30 21:17:14;;;;;;;3.45;3.25;;;;;;;17.58;76.19;100429.53;10398360;28;20041;-70
2022/08/30 21:22:16;;;;;;;3.03;2.83;;;;;;;17.56;76.07;100421.63;10418175;28;20049;-71
2022/08/30 21:27:20;;;;;;;3.53;3.33;;;;;;;17.34;77.48;100426.41;10416043;28;20038;-70
2022/08/30 21:32:21;;;;;;;3.42;3.22;;;;;;;17.18;78.68;100417.50;10417048;28;20060;-70
2022/08/30 21:37:23;;;;;;;3.42;3.13;;;;;;;17.07;79.05;100426.91;10398046;28;20495;-70
2022/08/30 21:42:25;;;;;;;3.65;3.33;;;;;;;17.32;80.27;100421.16;10415930;28;20049;-70
2022/08/30 21:47:27;;;;;;;4.28;3.20;;;;;;;17.18;80.25;100422.81;10415675;28;20048;-70
2022/08/30 21:52:29;;;;;;;3.67;3.40;;;;;;;16.87;82.27;100432.41;10415619;28;20048;-70
2022/08/30 21:57:31;;;;;;;3.30;3.10;;;;;;;17.12;82.13;100434.63;10415923;28;20041;-70
2022/08/30 22:02:33;;;;;;;4.13;3.72;;;;;;;17.06;81.26;100435.81;10416201;28;20056;-70
2022/08/30 22:07:36;;;;;;;4.20;3.92;;;;;;;16.60;83.99;100440.81;10417651;28;20037;-70
2022/08/30 22:12:38;;;;;;;3.80;3.00;;;;;;;16.44;85.40;100442.50;10417015;28;20041;-71
2022/08/30 22:17:42;;;;;;;3.60;3.40;;;;;;;16.35;85.54;100443.81;10398041;28;20560;-71
2022/08/30 22:22:44;;;;;;;3.38;3.17;;;;;;;16.31;85.97;100452.84;10414935;28;20435;-71
2022/08/30 22:27:45;;;;;;;2.92;2.72;;;;;;;16.28;86.43;100453.00;10397446;28;20045;-71
2022/08/30 22:32:47;;;;;;;3.80;3.42;;;;;;;16.21;86.79;100440.97;10415487;28;20091;-71
2022/08/30 22:37:49;;;;;;;3.33;3.03;;;;;;;16.17;86.30;100433.25;10397094;28;20045;-72
2022/08/30 22:42:54;;;;;;;3.15;2.85;;;;;;;16.23;86.44;100435.59;10403271;28;20050;-72
2022/08/30 22:47:55;;;;;;;3.92;3.63;;;;;;;16.59;84.74;100441.72;10423440;28;20037;-72
2022/08/30 22:52:58;;;;;;;4.55;3.95;;;;;;;16.46;85.58;100451.22;10422006;28;20136;-71
2022/08/30 22:57:59;;;;;;;3.65;3.28;;;;;;;16.14;87.31;100461.63;10406614;28;20042;-71
2022/08/30 23:03:01;;;;;;;3.70;3.40;;;;;;;15.92;89.05;100460.06;10424769;28;20450;-71
2022/08/30 23:08:04;;;;;;;3.47;3.25;;;;;;;15.82;89.56;100467.59;10423447;28;20042;-72
2022/08/30 23:13:06;;;;;;;4.18;3.78;;;;;;;15.96;89.74;100461.66;10422010;28;20506;-72
2022/08/30 23:18:07;;;;;;;4.72;4.32;;;;;;;16.15;88.18;100468.63;10420734;28;20128;-71
